Terminal Aerodrome Forecast
Issued by NWS Cleveland, OH

Home | Current Version | Previous Version | Graphics & Text | Print | Product List | Glossary On
Versions: 1 2 3 4 5 6 7 8 9 10 11 12 13 14 15 16 17
564
FTUS41 KCLE 171138
TAFMFD
TAF
KMFD 171138Z 1712/1812 18004KT P6SM OVC028
     FM171630 18008KT P6SM OVC200
     FM172200 20008KT P6SM OVC100
     FM180200 24010KT P6SM OVC035
     FM181000 26006KT P6SM SCT035=

USA.gov is the U.S. government's official web portal to all federal, state and local government web resources and services.